createdAt,value
2018-02-21T00:01:25.271Z,97421.79
2018-02-21T00:03:53.117Z,97414.34
2018-02-21T00:06:20.640Z,97424.27
2018-02-21T00:08:48.179Z,97423.47
2018-02-21T00:11:15.734Z,97423.42
2018-02-21T00:13:43.258Z,97428.10
2018-02-21T00:16:11.717Z,97427.23
2018-02-21T00:18:39.244Z,97427.69
2018-02-21T00:21:06.753Z,97426.86
2018-02-21T00:23:34.298Z,97427.25
2018-02-21T00:26:01.822Z,97434.36
2018-02-21T00:28:29.447Z,97427.69
2018-02-21T00:30:56.961Z,97428.10
2018-02-21T00:33:24.505Z,97428.08
2018-02-21T00:35:52.091Z,97427.27
2018-02-21T00:38:19.614Z,97427.23
2018-02-21T00:40:47.162Z,97433.08
2018-02-21T00:43:14.681Z,97427.27
2018-02-21T00:45:42.214Z,97429.75
2018-02-21T00:48:09.764Z,97434.75
2018-02-21T00:50:37.273Z,97443.92
2018-02-21T00:53:04.859Z,97446.82
2018-02-21T00:55:32.378Z,97440.59
2018-02-21T00:57:59.887Z,97445.16
2018-02-21T01:00:27.433Z,97445.56
2018-02-21T01:02:54.946Z,97443.89
2018-02-21T01:05:22.510Z,97444.77
2018-02-21T01:07:50.028Z,97444.74
2018-02-21T01:10:17.545Z,97439.34
2018-02-21T01:12:45.107Z,97449.34
2018-02-21T01:15:12.647Z,97448.48
2018-02-21T01:17:40.518Z,97450.97
2018-02-21T01:20:08.037Z,97454.33
2018-02-21T01:22:35.550Z,97443.91
2018-02-21T01:25:03.095Z,97451.83
2018-02-21T01:27:30.618Z,97444.76
2018-02-21T01:29:58.265Z,97448.06
2018-02-21T01:32:25.787Z,97449.72
2018-02-21T01:34:53.361Z,97452.64
2018-02-21T01:37:20.918Z,97453.48
2018-02-21T01:39:48.511Z,97455.57
2018-02-21T01:42:16.082Z,97455.97
2018-02-21T01:44:43.609Z,97452.66
2018-02-21T01:47:11.127Z,97466.39
2018-02-21T01:49:38.671Z,97465.97
2018-02-21T01:52:06.187Z,97469.72
2018-02-21T01:54:33.783Z,97465.56
2018-02-21T01:57:01.293Z,97463.89
2018-02-21T01:59:28.808Z,97465.97
2018-02-21T02:01:56.352Z,97458.03
2018-02-21T02:04:24.081Z,97464.30
2018-02-21T02:06:51.638Z,97463.47
2018-02-21T02:09:19.167Z,97465.55
2018-02-21T02:11:46.697Z,97463.87
2018-02-21T02:14:14.256Z,97465.56
2018-02-21T02:16:41.776Z,97466.39
2018-02-21T02:19:09.489Z,97460.98
2018-02-21T02:21:37.013Z,97463.87
2018-02-21T02:24:04.533Z,97464.72
2018-02-21T02:26:32.094Z,97456.37
2018-02-21T02:28:59.628Z,97467.20
2018-02-21T02:31:27.186Z,97468.46
2018-02-21T02:33:54.693Z,97472.62
2018-02-21T02:36:22.209Z,97469.30
2018-02-21T02:39:01.703Z,97469.30
2018-02-21T02:41:29.250Z,97470.54
2018-02-21T02:43:56.821Z,97468.88
2018-02-21T02:46:24.382Z,97466.38
2018-02-21T02:48:51.934Z,97473.06
2018-02-21T02:51:19.458Z,97463.91
2018-02-21T02:53:46.974Z,97460.15
2018-02-21T02:56:14.510Z,97461.39
2018-02-21T02:58:42.029Z,97455.54
2018-02-21T03:01:09.582Z,97455.13
2018-02-21T03:03:37.111Z,97462.23
2018-02-21T03:06:04.634Z,97472.63
2018-02-21T03:08:32.494Z,97476.38
2018-02-21T03:11:00.014Z,97477.63
2018-02-21T03:13:27.876Z,97486.78
2018-02-21T03:15:55.385Z,97485.55
2018-02-21T03:18:22.893Z,97486.37
2018-02-21T03:20:50.437Z,97495.52
2018-02-21T03:23:17.953Z,97503.03
2018-02-21T03:25:45.664Z,97498.43
2018-02-21T03:28:13.183Z,97500.95
2018-02-21T03:30:40.698Z,97503.45
2018-02-21T03:33:08.250Z,97503.45
2018-02-21T03:35:35.764Z,97504.70
2018-02-21T03:38:03.325Z,97509.70
2018-02-21T03:40:30.850Z,97511.38
2018-02-21T03:42:58.438Z,97511.37
2018-02-21T03:45:25.990Z,97521.77
2018-02-21T03:47:53.501Z,97516.76
2018-02-21T03:50:21.061Z,97518.45
2018-02-21T03:52:48.579Z,97516.75
2018-02-21T03:55:16.089Z,97524.69
2018-02-21T03:57:43.629Z,97519.26
2018-02-21T04:00:11.141Z,97528.43
2018-02-21T04:02:38.717Z,97517.59
2018-02-21T04:05:06.236Z,97526.75
2018-02-21T04:07:33.752Z,97527.54
2018-02-21T04:10:01.297Z,97525.08
2018-02-21T04:12:28.817Z,97526.33
2018-02-21T04:14:56.369Z,97526.34
2018-02-21T04:17:23.882Z,97521.34
2018-02-21T04:19:51.411Z,97520.09
2018-02-21T04:22:18.957Z,97523.00
2018-02-21T04:24:46.477Z,97521.34
2018-02-21T04:27:14.344Z,97528.84
2018-02-21T04:29:41.864Z,97523.81
2018-02-21T04:32:09.386Z,97520.09
2018-02-21T04:34:37.863Z,97527.15
2018-02-21T04:37:05.386Z,97529.64
2018-02-21T04:39:32.934Z,97526.73
2018-02-21T04:42:01.364Z,97527.57
2018-02-21T04:44:28.889Z,97528.42
2018-02-21T04:46:56.433Z,97532.97
2018-02-21T04:49:23.998Z,97530.48
2018-02-21T04:51:51.673Z,97531.32
2018-02-21T04:57:36.466Z,97523.39
2018-02-21T05:00:04.068Z,97531.73
2018-02-21T05:02:31.554Z,97527.56
2018-02-21T05:04:59.096Z,97523.41
2018-02-21T05:07:26.619Z,97522.56
2018-02-21T05:09:54.170Z,97515.91
2018-02-21T05:12:21.687Z,97518.00
2018-02-21T05:14:49.213Z,97516.31
2018-02-21T05:17:16.777Z,97523.83
2018-02-21T05:19:44.293Z,97521.70
2018-02-21T05:22:11.859Z,97518.38
2018-02-21T05:24:39.378Z,97518.80
2018-02-21T05:27:06.897Z,97519.87
2018-02-21T05:29:34.445Z,97527.84
2018-02-21T05:32:01.966Z,97524.58
2018-02-21T05:34:29.845Z,97529.59
2018-02-21T05:36:57.358Z,97532.09
2018-02-21T05:39:25.716Z,97536.64
2018-02-21T05:41:53.248Z,97527.12
2018-02-21T05:44:20.767Z,97527.94
2018-02-21T05:46:48.577Z,97538.80
2018-02-21T05:49:16.112Z,97545.03
2018-02-21T05:51:43.626Z,97540.82
2018-02-21T05:54:11.344Z,97541.16
2018-02-21T05:56:38.929Z,97544.59
2018-02-21T05:59:06.674Z,97538.34
2018-02-21T06:01:34.186Z,97541.66
2018-02-21T06:04:01.712Z,97543.36
2018-02-21T06:06:29.264Z,97546.72
2018-02-21T06:08:56.784Z,97547.14
2018-02-21T06:11:24.329Z,97552.97
2018-02-21T06:13:51.843Z,97544.66
2018-02-21T06:16:19.362Z,97547.97
2018-02-21T06:18:46.930Z,97546.73
2018-02-21T06:21:14.481Z,97546.75
2018-02-21T06:23:42.356Z,97549.66
2018-02-21T06:26:09.877Z,97535.92
2018-02-21T06:28:38.526Z,97539.58
2018-02-21T06:31:06.080Z,97532.11
2018-02-21T06:33:33.606Z,97535.45
2018-02-21T06:36:01.394Z,97527.58
2018-02-21T06:38:28.963Z,97526.34
2018-02-21T06:40:56.457Z,97524.68
2018-02-21T06:43:24.035Z,97520.48
2018-02-21T06:45:51.558Z,97514.70
2018-02-21T06:48:19.206Z,97521.34
2018-02-21T06:50:46.722Z,97517.13
2018-02-21T06:53:14.242Z,97519.67
2018-02-21T06:55:41.789Z,97520.50
2018-02-21T06:58:09.350Z,97513.44
2018-02-21T07:00:36.901Z,97507.58
2018-02-21T07:03:04.421Z,97509.66
2018-02-21T07:05:32.146Z,97512.60
2018-02-21T07:07:59.701Z,97508.04
2018-02-21T07:10:27.219Z,97510.91
2018-02-21T07:12:54.820Z,97515.52
2018-02-21T07:15:22.371Z,97517.58
2018-02-21T07:17:49.897Z,97518.42
2018-02-21T07:20:17.452Z,97518.40
2018-02-21T07:22:44.976Z,97518.00
2018-02-21T07:25:12.554Z,97523.78
2018-02-21T07:27:40.262Z,97519.62
2018-02-21T07:30:07.882Z,97517.95
2018-02-21T07:32:36.709Z,97517.56
2018-02-21T07:35:04.577Z,97521.28
2018-02-21T07:37:32.652Z,97522.92
2018-02-21T07:40:01.091Z,97515.02
2018-02-21T07:42:29.813Z,97512.59
2018-02-21T07:44:57.470Z,97525.91
2018-02-21T07:47:25.342Z,97515.89
2018-02-21T07:49:54.024Z,97516.72
2018-02-21T07:52:21.791Z,97520.08
2018-02-21T07:54:49.358Z,97512.15
2018-02-21T07:57:17.091Z,97509.23
2018-02-21T07:59:44.777Z,97509.61
2018-02-21T08:02:12.644Z,97513.81
2018-02-21T08:04:40.183Z,97515.45
2018-02-21T08:07:07.698Z,97520.44
2018-02-21T08:09:35.422Z,97525.78
2018-02-21T08:12:03.102Z,97526.63
2018-02-21T08:14:30.835Z,97517.08
2018-02-21T08:16:58.408Z,97523.33
2018-02-21T08:19:25.924Z,97525.02
2018-02-21T08:21:53.475Z,97522.52
2018-02-21T08:24:20.997Z,97528.41
2018-02-21T08:26:48.730Z,97528.70
2018-02-21T08:29:16.255Z,97530.42
2018-02-21T08:31:43.798Z,97529.50
2018-02-21T08:34:11.342Z,97532.37
2018-02-21T08:36:38.898Z,97533.29
2018-02-21T08:39:06.538Z,97525.44
2018-02-21T08:41:34.049Z,97533.37
2018-02-21T08:44:01.574Z,97529.16
2018-02-21T08:46:29.126Z,97529.50
2018-02-21T08:48:56.650Z,97530.75
2018-02-21T08:51:24.422Z,97539.62
2018-02-21T08:53:51.946Z,97545.28
2018-02-21T08:56:19.475Z,97544.00
2018-02-21T08:58:47.067Z,97554.77
2018-02-21T09:01:14.565Z,97549.00
2018-02-21T09:03:42.122Z,97548.95
2018-02-21T09:06:09.641Z,97559.40
2018-02-21T09:08:37.170Z,97555.45
2018-02-21T09:11:04.725Z,97556.27
2018-02-21T09:13:32.249Z,97558.33
2018-02-21T09:15:59.805Z,97554.58
2018-02-21T09:18:27.324Z,97558.62
2018-02-21T09:20:54.843Z,97559.91
2018-02-21T09:23:22.437Z,97558.56
2018-02-21T09:25:51.594Z,97559.58
2018-02-21T09:28:19.550Z,97559.48
2018-02-21T09:30:47.071Z,97564.51
2018-02-21T09:33:14.605Z,97569.45
2018-02-21T09:35:42.158Z,97566.16
2018-02-21T09:38:09.693Z,97567.80
2018-02-21T09:40:37.349Z,97569.48
2018-02-21T09:43:04.873Z,97573.47
2018-02-21T09:45:32.398Z,97576.83
2018-02-21T09:48:00.896Z,97576.81
2018-02-21T09:50:28.423Z,97570.81
2018-02-21T09:52:56.166Z,97566.21
2018-02-21T09:55:23.762Z,97569.03
2018-02-21T09:57:51.284Z,97563.72
2018-02-21T10:00:18.826Z,97562.53
2018-02-21T10:02:46.833Z,97556.84
2018-02-21T10:05:14.385Z,97562.64
2018-02-21T10:07:41.907Z,97560.53
2018-02-21T10:10:09.431Z,97571.44
2018-02-21T10:12:36.983Z,97562.51
2018-02-21T10:15:04.512Z,97564.42
2018-02-21T10:17:32.067Z,97561.84
2018-02-21T10:19:59.590Z,97563.27
2018-02-21T10:22:27.161Z,97561.14
2018-02-21T10:24:54.682Z,97562.33
2018-02-21T10:27:22.214Z,97560.27
2018-02-21T10:29:49.774Z,97563.52
2018-02-21T10:32:17.308Z,97566.87
2018-02-21T10:34:44.981Z,97567.34
2018-02-21T10:37:12.514Z,97569.57
2018-02-21T10:39:40.067Z,97568.29
2018-02-21T10:42:07.630Z,97564.38
2018-02-21T10:44:35.170Z,97565.57
2018-02-21T10:47:03.038Z,97566.61
2018-02-21T10:49:30.561Z,97561.19
2018-02-21T10:51:58.090Z,97559.82
2018-02-21T10:54:25.643Z,97559.47
2018-02-21T10:56:53.171Z,97561.53
2018-02-21T10:59:20.874Z,97562.26
2018-02-21T11:01:48.397Z,97561.47
2018-02-21T11:04:15.921Z,97561.33
2018-02-21T11:06:43.471Z,97562.24
2018-02-21T11:09:11.889Z,97553.55
2018-02-21T11:11:39.606Z,97558.02
2018-02-21T11:14:07.131Z,97554.61
2018-02-21T11:16:34.657Z,97558.61
2018-02-21T11:19:02.222Z,97559.11
2018-02-21T11:21:29.762Z,97557.82
2018-02-21T11:23:57.802Z,97549.64
2018-02-21T11:26:25.318Z,97550.27
2018-02-21T11:28:52.899Z,97555.75
2018-02-21T11:31:20.726Z,97553.61
2018-02-21T11:33:48.246Z,97552.78
2018-02-21T11:36:15.812Z,97557.27
2018-02-21T11:38:43.364Z,97556.80
2018-02-21T11:41:10.889Z,97558.28
2018-02-21T11:43:38.555Z,97556.19
2018-02-21T11:46:06.077Z,97543.06
2018-02-21T11:48:34.010Z,97544.19
2018-02-21T11:51:01.534Z,97540.55
2018-02-21T11:53:29.066Z,97534.62
2018-02-21T11:55:56.682Z,97536.20
2018-02-21T11:58:24.270Z,97533.73
2018-02-21T12:00:52.040Z,97527.95
2018-02-21T12:03:19.567Z,97531.55
2018-02-21T12:05:47.108Z,97523.18
2018-02-21T12:08:14.680Z,97522.05
2018-02-21T12:10:42.198Z,97514.10
2018-02-21T12:13:09.769Z,97510.14
2018-02-21T12:15:37.362Z,97513.81
2018-02-21T12:18:04.881Z,97503.12
2018-02-21T12:20:32.460Z,97507.11
2018-02-21T12:23:00.078Z,97502.80
2018-02-21T12:25:28.546Z,97503.68
2018-02-21T12:27:56.174Z,97500.17
2018-02-21T12:30:24.586Z,97495.34
2018-02-21T12:32:52.518Z,97490.07
2018-02-21T12:35:21.013Z,97487.16
2018-02-21T12:37:48.595Z,97491.28
2018-02-21T12:40:21.599Z,97489.31
2018-02-21T12:42:49.438Z,97493.22
2018-02-21T12:45:16.973Z,97490.52
2018-02-21T12:47:44.692Z,97486.86
2018-02-21T12:50:12.279Z,97482.77
2018-02-21T12:52:40.811Z,97482.91
2018-02-21T12:55:08.396Z,97472.26
2018-02-21T12:57:36.032Z,97474.45
2018-02-21T13:00:03.797Z,97467.54
2018-02-21T13:02:31.354Z,97456.19
2018-02-21T13:04:58.881Z,97460.05
2018-02-21T13:07:26.631Z,97454.09
2018-02-21T13:09:54.546Z,97463.00
2018-02-21T13:12:22.314Z,97457.36
2018-02-21T13:14:50.844Z,97450.25
2018-02-21T13:17:22.557Z,97450.78
2018-02-21T13:19:50.619Z,97448.95
2018-02-21T13:22:19.507Z,97449.83
2018-02-21T13:24:47.480Z,97448.84
2018-02-21T13:27:15.956Z,97454.78
2018-02-21T13:29:43.542Z,97455.14
2018-02-21T13:32:11.386Z,97447.35
2018-02-21T13:34:39.150Z,97443.56
2018-02-21T13:37:08.433Z,97441.16
2018-02-21T13:39:36.498Z,97434.39
2018-02-21T13:42:04.387Z,97434.89
2018-02-21T13:44:32.255Z,97434.95
2018-02-21T13:47:00.021Z,97436.06
2018-02-21T13:49:27.781Z,97432.59
2018-02-21T13:51:55.652Z,97432.92
2018-02-21T13:54:23.206Z,97427.85
2018-02-21T13:56:51.073Z,97430.91
2018-02-21T13:59:19.044Z,97428.38
2018-02-21T14:01:46.798Z,97428.16
2018-02-21T14:04:14.738Z,97425.23
2018-02-21T14:06:42.785Z,97422.17
2018-02-21T14:09:11.330Z,97423.21
2018-02-21T14:11:39.115Z,97414.52
2018-02-21T14:14:06.855Z,97418.49
2018-02-21T14:16:34.626Z,97412.66
2018-02-21T14:19:02.183Z,97416.42
2018-02-21T14:21:29.725Z,97417.06
2018-02-21T14:23:57.273Z,97417.10
2018-02-21T14:26:24.953Z,97420.58
2018-02-21T14:28:53.406Z,97417.91
2018-02-21T14:31:20.937Z,97420.91
2018-02-21T14:33:48.450Z,97421.62
2018-02-21T14:36:16.096Z,97418.86
2018-02-21T14:38:43.635Z,97413.97
2018-02-21T14:41:11.486Z,97413.47
2018-02-21T14:43:39.180Z,97405.75
2018-02-21T14:46:06.711Z,97399.68
2018-02-21T14:48:34.258Z,97398.50
2018-02-21T14:51:01.883Z,97403.70
2018-02-21T14:53:29.612Z,97401.59
2018-02-21T14:55:57.411Z,97404.84
2018-02-21T14:58:25.074Z,97405.71
2018-02-21T15:00:52.671Z,97404.74
2018-02-21T15:03:21.216Z,97406.89
2018-02-21T15:05:48.858Z,97401.95
2018-02-21T15:08:16.396Z,97396.56
2018-02-21T15:10:43.930Z,97405.84
2018-02-21T15:13:11.486Z,97403.12
2018-02-21T15:15:39.083Z,97397.59
2018-02-21T15:18:06.682Z,97398.91
2018-02-21T15:20:34.342Z,97402.06
2018-02-21T15:23:02.031Z,97401.75
2018-02-21T15:25:29.912Z,97393.31
2018-02-21T15:27:57.753Z,97399.96
2018-02-21T15:30:25.510Z,97403.42
2018-02-21T15:32:53.969Z,97398.17
2018-02-21T15:35:21.545Z,97414.50
2018-02-21T15:37:49.376Z,97419.77
2018-02-21T15:40:17.062Z,97424.20
2018-02-21T15:42:45.338Z,97416.13
2018-02-21T15:45:12.999Z,97419.44
2018-02-21T15:47:40.662Z,97418.31
2018-02-21T15:50:08.224Z,97423.87
2018-02-21T15:52:35.870Z,97421.03
2018-02-21T15:55:03.615Z,97419.49
2018-02-21T15:57:31.145Z,97425.07
2018-02-21T15:59:58.719Z,97421.12
2018-02-21T16:02:26.530Z,97424.16
2018-02-21T16:04:54.117Z,97419.98
2018-02-21T16:07:21.837Z,97421.41
2018-02-21T16:09:49.394Z,97422.45
2018-02-21T16:12:17.278Z,97424.47
2018-02-21T16:14:45.044Z,97426.59
2018-02-21T16:17:12.911Z,97429.03
2018-02-21T16:19:40.677Z,97431.22
2018-02-21T16:22:08.545Z,97427.17
2018-02-21T16:24:37.122Z,97437.42
2018-02-21T16:27:05.098Z,97434.33
2018-02-21T16:29:32.957Z,97438.98
2018-02-21T16:32:00.824Z,97442.00
2018-02-21T16:34:28.852Z,97438.56
2018-02-21T16:36:57.480Z,97437.53
2018-02-21T16:39:25.346Z,97439.52
2018-02-21T16:41:53.212Z,97437.53
2018-02-21T16:44:21.079Z,97449.80
2018-02-21T16:46:49.011Z,97439.80
2018-02-21T16:49:16.707Z,97440.33
2018-02-21T16:51:44.576Z,97447.17
2018-02-21T16:54:17.248Z,97441.61
2018-02-21T16:56:44.982Z,97442.03
2018-02-21T16:59:12.657Z,97445.95
2018-02-21T17:01:40.893Z,97449.59
2018-02-21T17:04:08.499Z,97452.60
2018-02-21T17:06:36.027Z,97449.41
2018-02-21T17:09:03.823Z,97452.59
2018-02-21T17:11:31.439Z,97446.44
2018-02-21T17:13:59.143Z,97457.21
2018-02-21T17:16:27.822Z,97461.37
2018-02-21T17:18:55.486Z,97454.77
2018-02-21T17:21:23.039Z,97461.55
2018-02-21T17:23:50.604Z,97461.47
2018-02-21T17:26:18.398Z,97456.15
2018-02-21T17:28:46.117Z,97459.12
2018-02-21T17:31:13.763Z,97462.41
2018-02-21T17:33:41.479Z,97462.84
2018-02-21T17:36:09.346Z,97465.28
2018-02-21T17:38:37.597Z,97473.58
2018-02-21T17:41:10.750Z,97473.22
2018-02-21T17:43:38.478Z,97476.95
2018-02-21T17:46:06.547Z,97485.68
2018-02-21T17:48:34.208Z,97484.47
2018-02-21T17:51:02.999Z,97485.76
2018-02-21T17:53:30.865Z,97491.57
2018-02-21T17:55:58.735Z,97486.20
2018-02-21T17:58:26.806Z,97486.22
2018-02-21T18:00:54.568Z,97481.65
2018-02-21T18:03:22.438Z,97493.75
2018-02-21T18:05:50.400Z,97480.86
2018-02-21T18:08:18.267Z,97483.39
2018-02-21T18:10:46.297Z,97480.47
2018-02-21T18:13:14.307Z,97474.62
2018-02-21T18:15:42.071Z,97480.47
2018-02-21T18:18:09.873Z,97484.63
2018-02-21T18:20:37.706Z,97475.06
2018-02-21T18:23:05.721Z,97476.73
2018-02-21T18:25:33.639Z,97478.41
2018-02-21T18:28:01.609Z,97473.81
2018-02-21T18:30:29.784Z,97472.57
2018-02-21T18:32:57.774Z,97472.58
2018-02-21T18:35:25.889Z,97473.39
2018-02-21T18:37:53.791Z,97472.98
2018-02-21T18:40:21.577Z,97474.62
2018-02-21T18:42:49.628Z,97472.13
2018-02-21T18:45:17.430Z,97474.61
2018-02-21T18:47:45.771Z,97471.31
2018-02-21T18:50:13.663Z,97481.72
2018-02-21T18:52:41.708Z,97484.67
2018-02-21T18:55:09.477Z,97485.07
2018-02-21T18:57:37.341Z,97487.58
2018-02-21T19:00:05.410Z,97488.81
2018-02-21T19:02:33.380Z,97489.26
2018-02-21T19:05:01.237Z,97488.02
2018-02-21T19:07:29.419Z,97483.87
2018-02-21T19:09:58.094Z,97482.60
2018-02-21T19:12:26.075Z,97483.44
2018-02-21T19:14:53.935Z,97494.70
2018-02-21T19:17:21.895Z,97489.68
2018-02-21T19:19:50.699Z,97490.11
2018-02-21T19:22:18.668Z,97489.70
2018-02-21T19:24:46.637Z,97490.11
2018-02-21T19:27:14.502Z,97487.20
2018-02-21T19:29:42.368Z,97488.03
2018-02-21T19:32:11.144Z,97488.88
2018-02-21T19:34:39.509Z,97481.78
2018-02-21T19:37:07.763Z,97479.73
2018-02-21T19:39:35.678Z,97482.20
2018-02-21T19:42:03.856Z,97484.28
2018-02-21T19:44:33.955Z,97483.46
2018-02-21T19:47:01.959Z,97483.05
2018-02-21T19:49:30.113Z,97488.45
2018-02-21T19:51:58.154Z,97485.54
2018-02-21T19:54:26.017Z,97493.87
2018-02-21T19:56:54.839Z,97489.30
2018-02-21T19:59:23.198Z,97491.36
2018-02-21T20:01:51.392Z,97496.33
2018-02-21T20:04:19.735Z,97493.84
2018-02-21T20:06:47.744Z,97495.09
2018-02-21T20:09:15.705Z,97496.73
2018-02-21T20:11:44.358Z,97501.75
2018-02-21T20:14:12.975Z,97497.16
2018-02-21T20:16:42.847Z,97500.47
2018-02-21T20:19:10.758Z,97489.66
2018-02-21T20:21:39.545Z,97485.91
2018-02-21T20:24:07.722Z,97482.02
2018-02-21T20:26:36.096Z,97478.77
2018-02-21T20:29:05.090Z,97478.02
2018-02-21T20:31:32.956Z,97484.62
2018-02-21T20:34:01.563Z,97488.81
2018-02-21T20:36:29.508Z,97485.10
2018-02-21T20:38:58.161Z,97483.87
2018-02-21T20:41:26.067Z,97487.19
2018-02-21T20:43:54.030Z,97488.43
2018-02-21T20:46:21.998Z,97489.66
2018-02-21T20:48:50.781Z,97489.67
2018-02-21T20:51:19.488Z,97488.83
2018-02-21T20:53:47.854Z,97492.55
2018-02-21T20:56:17.151Z,97490.08
2018-02-21T20:58:45.119Z,97488.41
2018-02-21T21:01:13.498Z,97492.15
2018-02-21T21:03:41.528Z,97489.61
2018-02-21T21:06:09.846Z,97490.39
2018-02-21T21:08:37.814Z,97479.16
2018-02-21T21:11:05.886Z,97488.74
2018-02-21T21:13:39.400Z,97482.12
2018-02-21T21:16:08.098Z,97485.45
2018-02-21T21:18:35.939Z,97483.74
2018-02-21T21:21:04.214Z,97485.83
2018-02-21T21:23:32.287Z,97485.41
2018-02-21T21:26:00.153Z,97481.20
2018-02-21T21:28:28.325Z,97480.71
2018-02-21T21:30:56.193Z,97484.11
2018-02-21T21:33:24.161Z,97482.03
2018-02-21T21:35:52.129Z,97482.44
2018-02-21T21:38:19.959Z,97476.15
2018-02-21T21:40:48.477Z,97477.44
2018-02-21T21:43:16.652Z,97472.38
2018-02-21T21:45:44.827Z,97473.26
2018-02-21T21:48:12.776Z,97468.68
2018-02-21T21:50:40.660Z,97467.00
2018-02-21T21:53:08.627Z,97459.92
2018-02-21T21:55:37.417Z,97459.92
2018-02-21T21:58:05.282Z,97454.95
2018-02-21T22:00:33.251Z,97458.28
2018-02-21T22:03:02.148Z,97454.11
2018-02-21T22:05:31.236Z,97449.05
2018-02-21T22:07:59.214Z,97447.37
2018-02-21T22:10:27.277Z,97448.26
2018-02-21T22:12:56.168Z,97449.89
2018-02-21T22:15:24.034Z,97446.58
2018-02-21T22:17:52.174Z,97450.99
2018-02-21T22:20:20.278Z,97446.09
2018-02-21T22:22:48.456Z,97443.21
2018-02-21T22:25:16.886Z,97441.46
2018-02-21T22:27:44.965Z,97438.20
2018-02-21T22:30:13.156Z,97439.11
2018-02-21T22:32:40.807Z,97433.63
2018-02-21T22:35:08.706Z,97436.49
2018-02-21T22:37:36.679Z,97437.69
2018-02-21T22:40:04.658Z,97443.46
2018-02-21T22:42:32.614Z,97441.44
2018-02-21T22:45:00.576Z,97437.73
2018-02-21T22:47:28.345Z,97434.73
2018-02-21T22:49:56.094Z,97432.31
2018-02-21T22:52:23.671Z,97430.22
2018-02-21T22:54:51.512Z,97429.23
2018-02-21T22:57:19.076Z,97435.96
2018-02-21T22:59:46.704Z,97432.61
2018-02-21T23:02:14.320Z,97435.13
2018-02-21T23:04:41.909Z,97431.08
2018-02-21T23:07:09.577Z,97429.84
2018-02-21T23:09:37.178Z,97422.59
2018-02-21T23:12:04.909Z,97423.15
2018-02-21T23:14:33.330Z,97426.42
2018-02-21T23:17:00.850Z,97426.07
2018-02-21T23:19:28.701Z,97421.47
2018-02-21T23:21:56.426Z,97424.73
2018-02-21T23:24:24.909Z,97419.77
2018-02-21T23:26:52.484Z,97417.33
2018-02-21T23:29:20.033Z,97418.13
2018-02-21T23:31:47.786Z,97421.23
2018-02-21T23:34:15.306Z,97417.56
2018-02-21T23:36:42.843Z,97417.95
2018-02-21T23:39:10.402Z,97417.61
2018-02-21T23:41:37.947Z,97415.91
2018-02-21T23:44:05.669Z,97417.48
2018-02-21T23:46:33.182Z,97416.63
2018-02-21T23:49:00.716Z,97411.75
2018-02-21T23:51:28.278Z,97412.03
2018-02-21T23:53:55.797Z,97415.04
2018-02-21T23:56:23.546Z,97413.65
2018-02-21T23:58:51.073Z,97407.87
